Rainbow Lakes, FL

1:01 AM EST on February 28, 2017 (GMT -0500)
Princeton Place 2 | | Change Station

Elev 14 ft 26.55 °N, 80.12 °W | Updated 2 seconds ago

Partly Cloudy
Partly Cloudy
78.3 °F
Feels Like 81 °F
N
2.7
Wind Variable Wind from SE
Gusts 4.5 mph

Today
High -- | Low -- °F
--% Chance of Precip.
Yesterday
High -- | Low -- °F
Precip. -- in
Pressure 30.26 in
Visibility 10.0 miles
Clouds Scattered Clouds 3300 ft
Mostly Cloudy 4300 ft
Mostly Cloudy 8000 ft
Heat Index 81 °F
Dew Point 73 °F
Humidity 84%
Rainfall 0.00 in
Snow Depth Not available.
6:44 AM 6:21 PM
Waxing Crescent, 3% visible
METAR KPBI 280553Z 12005KT 10SM SCT033 BKN043 BKN080 23/21 A3026 RMK AO2 RAE31 SLP246 P0005 60021 T02280206 10244 20222 58005 $
Pressure 30.26 in
Visibility 10.0 miles
Clouds Scattered Clouds 3300 ft
Mostly Cloudy 4300 ft
Mostly Cloudy 8000 ft
Heat Index 81 °F
Dew Point 73 °F
Humidity 84%
Rainfall 0.00 in
Snow Depth Not available.
6:44 AM 6:21 PM
Waxing Crescent, 3% visible
METAR KPBI 280553Z 12005KT 10SM SCT033 BKN043 BKN080 23/21 A3026 RMK AO2 RAE31 SLP246 P0005 60021 T02280206 10244 20222 58005 $

Get Your Daily Forecast Email!

Thanks for signing up!

Be on the lookout for a verification email in your inbox.

You'll start receiving the daily forecast at 8 AM.

×

10-Day Weather Forecast

Almanac

Astronomy

Feb. 28, 2017 Rise Set
Actual Time
Civil Twilight
Nautical Twilight
Astronomical Twilight
Moon
Length of Visible Light
Length of Day
Tomorrow will be .
, % of the Moon is Illuminated

Today's Extremes

State Highs State Lows

Community

WunderPhotos

Upload Photos

1,962,540 photos uploaded!

WunderBlog® & News

Nearby

Air Quality

  Air Quality AQ Index Pollutant
Not available.

Snow Depth

Station Depth Elevation

Earthquake Activity

City Distance Mag. Time & Date
Minimum magnitude displayed is 2.5.

Coastal Water Temperatures

Place Temperature

Stations

Nearby Weather Stations

Station Location Temp. Windchill Dew Point Humidity Wind Precip. Elev Updated Type
                   

Watches & Warnings

There are currently no watches in effect.